Flight Track Log - Related Links

Times and Time Zones

All times are in EDT time to prevent confusion due to time zone crossing. See the ASQ6108 flight status page for this flight to view local times or setup timezone preferences in your user account.

Time Position Orientation Groundspeed Altitude Reporting Facility
EDT Latitude Longitude Course Direction KTS MPH feet Rate Location/Type
Sun 09:16:16 PM 37.6300 -97.4506 235° Southwest 207 238 2,100  Level Kansas City Center
Sun 09:16:52 PM 37.6122 -97.4822 235° Southwest 185 213 3,800 2,615 Climbing Kansas City Center
Sun 09:17:34 PM 37.6247 -97.5261 290° West 252 290 5,500 2,852 Climbing Kansas City Center
Sun 09:17:53 PM 37.6381 -97.5550 300° West 239 275 6,700 2,903 Climbing Kansas City Center
Sun 09:18:36 PM 37.6564 -97.5992 298° West 238 274 8,500 2,571 Climbing Kansas City Center
Sun 09:19:38 PM 37.6858 -97.6806 295° West 248 285 11,200 2,195 Climbing Kansas City Center
Sun 09:20:39 PM 37.7197 -97.7714 295° West 273 314 13,000 1,512 Climbing Kansas City Center
Sun 09:21:41 PM 37.7456 -97.8789 287° West 319 367 14,300 1,561 Climbing Kansas City Center
Sun 09:22:42 PM 37.7561 -98.0094 276° West 340 391 16,200 1,561 Climbing Kansas City Center
Sun 09:23:44 PM 37.7722 -98.1244 280° West 349 402 17,500 1,707 Climbing Kansas City Center
Sun 09:24:45 PM 37.7906 -98.2492 281° West 358 412 19,700 2,098 Climbing Kansas City Center
Sun 09:25:47 PM 37.8114 -98.3969 280° West 355 409 21,800 1,902 Climbing Kansas City Center
Sun 09:26:48 PM 37.8272 -98.5233 279° West 361 415 23,600 1,854 Climbing Kansas City Center
Sun 09:27:50 PM 37.8447 -98.6492 280° West 362 417 25,600 1,854 Climbing Kansas City Center
Sun 09:28:51 PM 37.8614 -98.7742 280° West 361 415 27,400 1,707 Climbing Kansas City Center
Sun 09:29:53 PM 37.8797 -98.8975 281° West 358 412 29,100 1,707 Climbing Kansas City Center
Sun 09:30:54 PM 37.8961 -99.0214 280° West 357 411 30,900 1,415 Climbing Kansas City Center
Sun 09:31:56 PM 37.9128 -99.1450 280° West 356 410 32,000 537 Climbing Kansas City Center
Sun 09:32:57 PM 37.9294 -99.2794 279° West 384 442 32,000  Level Kansas City Center
Sun 09:33:59 PM 37.9497 -99.4286 280° West 419 482 32,000  Level Kansas City Center
Sun 09:35:00 PM 37.9739 -99.6197 279° West 447 514 32,000  Level Kansas City Center
Sun 09:36:02 PM 37.9936 -99.7722 279° West 454 522 32,000  Level Kansas City Center
Sun 09:37:03 PM 38.0128 -99.9247 279° West 457 526 32,000  Level Kansas City Center
Sun 09:38:05 PM 38.0358 -100.1033 279° West 460 529 32,000  Level Kansas City Center
Sun 09:39:06 PM 38.0544 -100.2558 279° West 460 529 32,000  Level Kansas City Center
Sun 09:40:08 PM 38.0761 -100.4325 279° West 458 527 32,000  Level Kansas City Center
Sun 09:41:09 PM 38.0942 -100.5828 279° West 455 524 32,000  Level Kansas City Center
Sun 09:42:11 PM 38.1147 -100.7592 278° West 456 525 32,000  Level Kansas City Center
Sun 09:43:12 PM 38.1322 -100.9100 278° West 454 522 32,000  Level Kansas City Center
Sun 09:43:31 PM 38.1375 -100.9603 278° West 457 526 32,000  Level Denver Center
Sun 09:44:33 PM 38.1583 -101.1367 279° West 456 525 32,000  Level Denver Center
Sun 09:45:35 PM 38.1758 -101.2864 279° West 451 519 32,000  Level Denver Center
Sun 09:46:37 PM 38.1947 -101.4386 279° West 456 525 32,000  Level Denver Center
Sun 09:47:38 PM 38.2633 -101.5856 301° West 432 497 32,000  Level Denver Center
Sun 09:48:40 PM 38.3253 -101.7097 302° West 434 499 32,000  Level Denver Center
Sun 09:49:54 PM 38.4081 -101.8744 303° West 433 498 32,000  Level Denver Center
Sun 09:50:56 PM 38.4789 -102.0183 302° West 431 496 32,000  Level Denver Center
Sun 09:51:58 PM 38.5406 -102.1444 302° West 436 502 32,000  Level Denver Center
Sun 09:53:00 PM 38.6108 -102.2875 302° West 428 493 32,000  Level Denver Center
Sun 09:54:02 PM 38.6722 -102.4131 302° West 433 498 32,000  Level Denver Center
Sun 09:55:04 PM 38.7328 -102.5383 302° West 433 498 32,000  Level Denver Center
Sun 09:56:06 PM 38.8031 -102.6831 302° West 429 494 32,000  Level Denver Center
Sun 09:57:08 PM 38.8681 -102.8189 302° West 432 497 32,000  Level Denver Center
Sun 09:58:10 PM 38.9286 -102.9450 302° West 435 501 32,000  Level Denver Center
Sun 09:59:11 PM 38.9989 -103.0917 302° West 434 499 32,000 -829 Level Denver Center
Sun 10:00:13 PM 39.0589 -103.2175 302° West 432 497 30,300 -1,887 Descending Denver Center
Sun 10:01:15 PM 39.1258 -103.3597 301° West 418 481 28,100 -1,984 Descending Denver Center
Sun 10:02:17 PM 39.1819 -103.4786 301° West 408 470 26,200 -2,032 Descending Denver Center
Sun 10:03:19 PM 39.2456 -103.6119 302° West 393 452 23,900 -2,032 Descending Denver Center
Sun 10:04:21 PM 39.2986 -103.7281 301° West 392 451 22,000 -1,839 Descending Denver Center
Sun 10:05:23 PM 39.3567 -103.8536 301° West 368 423 20,100 -1,694 Descending Denver Center
Sun 10:06:25 PM 39.4078 -103.9553 303° West 348 400 18,500 -1,403 Descending Denver Center
Sun 10:07:27 PM 39.4658 -104.0536 307° West 346 398 17,200 -1,415 Descending Denver Center
Sun 10:08:28 PM 39.5242 -104.1578 306° West 332 382 15,600 -1,463 Descending Denver Center
Sun 10:09:30 PM 39.5769 -104.2483 307° West 317 365 14,200 -1,258 Descending Denver Center
Sun 10:10:32 PM 39.6325 -104.3461 306° West 314 361 13,000 -581 Descending Denver Center
Sun 10:11:34 PM 39.6814 -104.4306 307° West 295 339 13,000 -97 Level Denver Center
Sun 10:12:36 PM 39.7272 -104.5114 306° West 282 325 12,800 -677 Descending Denver Center
Sun 10:13:38 PM 39.7964 -104.5297 348° North 252 290 11,600 -878 Descending Denver Center
Sun 10:14:39 PM 39.8617 -104.5247 North 240 276 11,000 -293 Descending Denver Center
Sun 10:15:41 PM 39.9353 -104.5214 North 246 283 11,000 -435 Level Denver Center
Sun 10:16:43 PM 39.9972 -104.5550 337° Northwest 249 287 10,100 -1,210 Descending Denver Center
Sun 10:17:45 PM 40.0178 -104.6328 289° West 226 260 8,500 -1,500 Descending Denver Center
Sun 10:18:47 PM 39.9828 -104.6833 228° Southwest 214 246 7,000 -1,122 Descending Denver Center
Sun 10:19:48 PM 39.9369 -104.6867 183° South 171 197 6,200 -780 Descending Denver Center
Sun 10:20:50 PM 39.8944 -104.6867 180° South 147 169 5,400 -774 Descending Denver Center
Sun 10:22:00 PM 39.8617 -104.6732 North  Level Estimated
Sun 10:29:00 PM 39.8617 -104.6732 North  Level Estimated
Sun 10:30:00 PM 39.8617 -104.6732 North  Level Estimated
Sun 10:31:00 PM 39.8617 -104.6732 North  Level Estimated

Login

Don't have an account? Register now (free) for customized features, flight alerts, and more!